createdAt,value
2022-11-04T00:00:57.679Z,6.57
2022-11-04T00:03:27.794Z,4.82
2022-11-04T00:05:58.075Z,5.90
2022-11-04T00:08:28.315Z,8.18
2022-11-04T00:11:17.118Z,5.97
2022-11-04T00:13:48.160Z,10.77
2022-11-04T00:16:36.191Z,8.93
2022-11-04T00:19:07.046Z,10.45
2022-11-04T00:21:55.646Z,8.45
2022-11-04T00:24:43.901Z,8.07
2022-11-04T00:27:33.011Z,12.50
2022-11-04T00:30:04.100Z,10.35
2022-11-04T00:32:52.662Z,8.40
2022-11-04T00:35:22.989Z,12.20
2022-11-04T00:37:53.124Z,8.70
2022-11-04T00:40:23.769Z,7.40
2022-11-04T00:42:53.699Z,15.95
2022-11-04T00:45:23.639Z,9.07
2022-11-04T00:47:53.524Z,9.80
2022-11-04T00:50:24.587Z,9.15
2022-11-04T00:53:00.054Z,9.82
2022-11-04T00:55:30.416Z,8.52
2022-11-04T00:58:00.614Z,8.40
2022-11-04T01:00:31.126Z,13.20
2022-11-04T01:03:02.117Z,9.95
2022-11-04T01:05:32.673Z,10.20
2022-11-04T01:08:02.520Z,15.95
2022-11-04T01:10:32.916Z,9.80
2022-11-04T01:13:03.005Z,8.68
2022-11-04T01:15:32.967Z,11.43
2022-11-04T01:18:04.096Z,8.65
2022-11-04T01:20:35.060Z,10.00
2022-11-04T01:23:04.980Z,11.43
2022-11-04T01:25:34.806Z,14.40
2022-11-04T01:28:04.755Z,9.90
2022-11-04T01:30:35.074Z,11.25
2022-11-04T01:33:05.033Z,14.18
2022-11-04T01:35:34.964Z,12.90
2022-11-04T01:38:04.948Z,18.50
2022-11-04T01:40:44.213Z,27.77
2022-11-04T01:43:18.423Z,19.73
2022-11-04T01:46:00.276Z,16.58
2022-11-04T01:48:32.854Z,20.35
2022-11-04T01:51:02.737Z,20.88
2022-11-04T01:53:36.908Z,21.00
2022-11-04T01:56:13.279Z,11.65
2022-11-04T01:58:56.882Z,17.05
2022-11-04T02:01:27.166Z,18.77
2022-11-04T02:04:19.992Z,12.05
2022-11-04T02:06:50.766Z,16.42
2022-11-04T02:09:21.586Z,10.32
2022-11-04T02:12:10.340Z,13.57
2022-11-04T02:14:40.323Z,15.23
2022-11-04T02:17:36.467Z,13.05
2022-11-04T02:20:40.206Z,12.95
2022-11-04T02:23:43.797Z,12.50
2022-11-04T02:29:08.141Z,12.35
2022-11-04T02:31:51.945Z,11.98
2022-11-04T02:34:43.991Z,12.68
2022-11-04T02:37:51.281Z,12.82
2022-11-04T02:40:44.989Z,12.07
2022-11-04T02:46:11.811Z,17.00
2022-11-04T02:48:43.315Z,11.00
2022-11-04T02:51:40.687Z,10.70
2022-11-04T02:54:13.534Z,11.55
2022-11-04T02:56:46.483Z,8.45
2022-11-04T02:59:43.934Z,8.43
2022-11-04T03:02:18.390Z,10.73
2022-11-04T03:04:52.055Z,9.60
2022-11-04T03:07:26.233Z,7.63
2022-11-04T03:09:59.634Z,11.90
2022-11-04T03:12:32.313Z,8.07
2022-11-04T03:15:05.841Z,8.85
2022-11-04T03:17:42.608Z,9.45
2022-11-04T03:20:24.317Z,8.02
2022-11-04T03:22:57.031Z,8.07
2022-11-04T03:28:29.222Z,7.53
2022-11-04T03:31:00.476Z,7.53
2022-11-04T03:33:49.412Z,6.25
2022-11-04T03:36:20.087Z,8.60
2022-11-04T03:38:53.142Z,6.45
2022-11-04T03:41:44.541Z,8.63
2022-11-04T03:44:16.252Z,7.82
2022-11-04T03:46:47.113Z,6.63
2022-11-04T03:49:19.590Z,6.50
2022-11-04T03:51:52.666Z,5.90
2022-11-04T03:57:37.756Z,4.63
2022-11-04T04:00:15.706Z,6.60
2022-11-04T04:03:11.396Z,11.60
2022-11-04T04:05:45.493Z,14.07
2022-11-04T04:08:27.392Z,14.13
2022-11-04T04:11:05.468Z,18.50
2022-11-04T04:14:01.072Z,18.05
2022-11-04T04:16:37.200Z,18.30
2022-11-04T04:19:17.963Z,15.48
2022-11-04T04:21:54.163Z,17.63
2022-11-04T04:24:45.575Z,20.83
2022-11-04T04:27:34.317Z,17.08
2022-11-04T04:30:08.309Z,14.75
2022-11-04T04:32:49.143Z,15.95
2022-11-04T04:35:37.264Z,16.88
2022-11-04T04:38:26.402Z,14.43
2022-11-04T04:41:21.377Z,15.52
2022-11-04T04:44:09.810Z,14.27
2022-11-04T04:46:40.183Z,15.50
2022-11-04T04:49:10.659Z,11.82
2022-11-04T04:51:44.800Z,14.15
2022-11-04T04:54:15.103Z,14.13
2022-11-04T04:56:44.995Z,17.92
2022-11-04T04:59:14.886Z,12.65
2022-11-04T05:01:44.873Z,15.15
2022-11-04T05:04:14.870Z,16.55
2022-11-04T05:06:44.810Z,13.68
2022-11-04T05:09:14.713Z,12.57
2022-11-04T05:11:44.644Z,13.15
2022-11-04T05:14:14.638Z,11.65
2022-11-04T05:16:44.559Z,13.27
2022-11-04T05:19:14.429Z,14.75
2022-11-04T05:21:44.470Z,16.33
2022-11-04T05:24:14.695Z,12.00
2022-11-04T05:26:44.742Z,9.40
2022-11-04T05:31:49.764Z,11.38
2022-11-04T05:34:19.782Z,11.70
2022-11-04T05:36:49.679Z,13.40
2022-11-04T05:39:19.654Z,9.10
2022-11-04T05:41:49.625Z,9.90
2022-11-04T05:44:19.729Z,8.90
2022-11-04T05:46:49.782Z,10.57
2022-11-04T05:49:19.764Z,9.13
2022-11-04T05:51:49.741Z,8.98
2022-11-04T05:54:19.689Z,9.60
2022-11-04T05:56:49.691Z,8.80
2022-11-04T05:59:19.818Z,7.95
2022-11-04T06:01:51.431Z,9.27
2022-11-04T06:04:21.620Z,7.55
2022-11-04T06:06:51.654Z,6.40
2022-11-04T06:09:21.713Z,6.63
2022-11-04T06:11:51.561Z,5.97
2022-11-04T06:14:21.550Z,4.97
2022-11-04T06:16:51.449Z,7.28
2022-11-04T06:19:21.376Z,8.45
2022-11-04T06:21:51.461Z,8.27
2022-11-04T06:24:21.392Z,5.43
2022-11-04T06:26:51.321Z,5.05
2022-11-04T06:29:21.244Z,6.85
2022-11-04T06:31:51.163Z,7.82
2022-11-04T06:34:21.130Z,6.53
2022-11-04T06:36:51.551Z,6.30
2022-11-04T06:39:21.795Z,4.03
2022-11-04T06:41:52.994Z,4.95
2022-11-04T06:44:24.003Z,7.13
2022-11-04T06:46:53.967Z,4.90
2022-11-04T06:49:26.727Z,4.22
2022-11-04T06:51:57.096Z,5.00
2022-11-04T06:54:27.081Z,13.65
2022-11-04T06:56:57.049Z,3.40
2022-11-04T06:59:27.080Z,2.83
2022-11-04T07:01:57.299Z,3.42
2022-11-04T07:04:27.287Z,2.55
2022-11-04T07:07:01.648Z,4.03
2022-11-04T07:09:31.688Z,6.43
2022-11-04T07:12:02.291Z,3.20
2022-11-04T07:14:32.556Z,4.70
2022-11-04T07:17:03.214Z,4.60
2022-11-04T07:19:33.375Z,3.38
2022-11-04T07:22:03.329Z,3.90
2022-11-04T07:24:34.324Z,3.90
2022-11-04T07:27:04.592Z,3.97
2022-11-04T07:29:34.701Z,3.22
2022-11-04T07:32:04.817Z,2.97
2022-11-04T07:34:35.547Z,1.88
2022-11-04T07:37:05.433Z,2.50
2022-11-04T07:39:35.357Z,1.95
2022-11-04T07:42:05.610Z,4.75
2022-11-04T07:44:35.670Z,3.33
2022-11-04T07:47:05.881Z,1.33
2022-11-04T07:49:35.949Z,1.30
2022-11-04T07:52:06.140Z,3.72
2022-11-04T07:54:36.093Z,3.55
2022-11-04T07:57:06.146Z,1.20
2022-11-04T07:59:36.047Z,2.28
2022-11-04T08:02:06.319Z,1.67
2022-11-04T08:04:36.292Z,1.23
2022-11-04T08:07:08.779Z,2.35
2022-11-04T08:09:39.043Z,0.88
2022-11-04T08:12:09.121Z,3.08
2022-11-04T08:14:39.045Z,1.40
2022-11-04T08:17:09.050Z,1.45
2022-11-04T08:19:38.987Z,2.28
2022-11-04T08:22:09.641Z,1.30
2022-11-04T08:24:39.678Z,4.20
2022-11-04T08:27:09.714Z,0.85
2022-11-04T08:29:39.775Z,3.30
2022-11-04T08:32:10.060Z,4.15
2022-11-04T08:34:40.029Z,1.25
2022-11-04T08:37:10.202Z,1.67
2022-11-04T08:39:40.157Z,2.30
2022-11-04T08:42:10.279Z,0.82
2022-11-04T08:44:41.132Z,1.10
2022-11-04T08:47:11.466Z,0.88
2022-11-04T08:49:43.113Z,0.47
2022-11-04T08:52:13.442Z,1.60
2022-11-04T08:54:43.416Z,0.98
2022-11-04T08:57:13.410Z,1.00
2022-11-04T08:59:43.453Z,1.00
2022-11-04T09:02:17.149Z,0.85
2022-11-04T09:04:47.180Z,1.25
2022-11-04T09:07:17.211Z,1.60
2022-11-04T09:09:47.280Z,0.80
2022-11-04T09:12:17.268Z,1.08
2022-11-04T09:14:47.210Z,1.42
2022-11-04T09:17:17.525Z,3.15
2022-11-04T09:19:47.429Z,2.25
2022-11-04T09:22:17.400Z,2.83
2022-11-04T09:24:48.110Z,3.47
2022-11-04T09:27:18.714Z,2.78
2022-11-04T09:29:48.728Z,2.00
2022-11-04T09:32:19.071Z,2.63
2022-11-04T09:34:49.486Z,1.98
2022-11-04T09:37:19.535Z,2.13
2022-11-04T09:39:53.705Z,1.67
2022-11-04T09:42:28.725Z,1.15
2022-11-04T09:45:21.608Z,1.60
2022-11-04T09:47:53.784Z,1.80
2022-11-04T09:50:50.514Z,4.13
2022-11-04T09:53:25.453Z,3.53
2022-11-04T09:55:57.779Z,1.55
2022-11-04T09:58:27.725Z,1.63
2022-11-04T10:01:14.547Z,2.72
2022-11-04T10:04:49.528Z,4.35
2022-11-04T10:07:25.668Z,3.60
2022-11-04T10:09:56.413Z,4.63
2022-11-04T10:12:47.137Z,1.63
2022-11-04T10:15:42.840Z,1.73
2022-11-04T10:18:30.795Z,2.63
2022-11-04T10:21:22.926Z,1.60
2022-11-04T10:23:58.656Z,1.90
2022-11-04T10:26:37.006Z,3.40
2022-11-04T10:29:08.115Z,3.38
2022-11-04T10:31:38.464Z,4.28
2022-11-04T10:34:29.510Z,2.05
2022-11-04T10:37:00.003Z,3.63
2022-11-04T10:39:37.179Z,2.20
2022-11-04T10:42:07.687Z,2.08
2022-11-04T10:44:37.850Z,3.50
2022-11-04T10:47:23.217Z,2.97
2022-11-04T10:50:32.131Z,2.17
2022-11-04T10:53:13.125Z,3.08
2022-11-04T10:56:12.256Z,3.70
2022-11-04T10:58:46.517Z,6.18
2022-11-04T11:01:33.940Z,3.72
2022-11-04T11:04:05.207Z,5.72
2022-11-04T11:06:37.621Z,5.32
2022-11-04T11:09:29.604Z,5.38
2022-11-04T11:12:36.361Z,9.27
2022-11-04T11:14:57.956Z,5.55
2022-11-04T11:17:48.177Z,3.58
2022-11-04T11:20:29.040Z,4.25
2022-11-04T11:23:05.613Z,4.38
2022-11-04T11:25:36.984Z,4.22
2022-11-04T11:28:12.129Z,4.32
2022-11-04T11:30:48.864Z,5.65
2022-11-04T11:33:36.060Z,3.33
2022-11-04T11:36:22.871Z,3.92
2022-11-04T11:38:59.248Z,5.68
2022-11-04T11:41:39.545Z,5.90
2022-11-04T11:44:27.440Z,5.97
2022-11-04T11:47:00.768Z,5.25
2022-11-04T11:49:35.152Z,7.50
2022-11-04T11:52:34.252Z,4.93
2022-11-04T11:55:24.920Z,5.40
2022-11-04T12:01:25.483Z,8.10
2022-11-04T12:10:18.161Z,16.60
2022-11-04T12:13:03.263Z,16.10
2022-11-04T12:15:51.787Z,18.42
2022-11-04T12:18:55.519Z,19.63
2022-11-04T12:21:40.818Z,40.22
2022-11-04T12:24:23.184Z,32.38
2022-11-04T12:26:58.415Z,31.33
2022-11-04T12:30:02.054Z,29.73
2022-11-04T12:32:43.859Z,30.17
2022-11-04T12:35:52.570Z,26.27
2022-11-04T12:38:26.846Z,27.50
2022-11-04T12:41:52.766Z,21.95
2022-11-04T12:44:34.547Z,21.52
2022-11-04T12:47:29.557Z,21.80
2022-11-04T12:50:00.281Z,22.45
2022-11-04T12:52:49.638Z,23.55
2022-11-04T12:55:31.977Z,20.65
2022-11-04T12:58:13.850Z,21.08
2022-11-04T13:00:44.672Z,17.17
2022-11-04T13:03:17.763Z,16.90
2022-11-04T13:08:55.112Z,15.65
2022-11-04T13:11:43.040Z,18.98
2022-11-04T13:14:22.543Z,19.13
2022-11-04T13:16:53.354Z,16.08
2022-11-04T13:19:37.384Z,17.13
2022-11-04T13:22:15.572Z,17.45
2022-11-04T13:24:57.905Z,18.30
2022-11-04T13:27:34.001Z,18.95
2022-11-04T13:30:32.383Z,20.00
2022-11-04T13:33:22.110Z,18.08
2022-11-04T13:35:59.070Z,19.27
2022-11-04T13:38:46.177Z,18.13
2022-11-04T13:41:34.673Z,20.02
2022-11-04T13:44:06.175Z,20.10
2022-11-04T13:46:36.217Z,21.48
2022-11-04T13:49:22.316Z,22.77
2022-11-04T13:52:12.159Z,24.75
2022-11-04T13:54:54.428Z,23.10
2022-11-04T13:57:36.884Z,24.95
2022-11-04T14:00:18.205Z,22.45
2022-11-04T14:02:56.899Z,22.67
2022-11-04T14:05:30.956Z,22.08
2022-11-04T14:08:04.832Z,21.60
2022-11-04T14:10:50.759Z,23.90
2022-11-04T14:13:37.008Z,27.20
2022-11-04T14:16:19.229Z,23.08
2022-11-04T14:18:50.323Z,23.65
2022-11-04T14:21:31.465Z,18.52
2022-11-04T14:24:04.252Z,16.47
2022-11-04T14:26:52.772Z,15.32
2022-11-04T14:29:26.006Z,14.60
2022-11-04T14:31:58.900Z,13.77
2022-11-04T14:34:37.739Z,15.90
2022-11-04T14:37:22.715Z,13.48
2022-11-04T14:40:00.075Z,14.52
2022-11-04T14:42:51.152Z,13.30
2022-11-04T14:45:41.049Z,13.75
2022-11-04T14:48:24.517Z,15.40
2022-11-04T14:50:55.320Z,14.73
2022-11-04T14:53:33.977Z,16.42
2022-11-04T14:56:24.563Z,15.45
2022-11-04T14:59:00.189Z,16.52
2022-11-04T15:01:35.098Z,14.07
2022-11-04T15:04:29.800Z,17.92
2022-11-04T15:07:04.330Z,18.60
2022-11-04T15:09:36.461Z,16.02
2022-11-04T15:12:31.212Z,16.48
2022-11-04T15:15:01.256Z,17.27
2022-11-04T15:17:33.016Z,16.83
2022-11-04T15:20:06.635Z,14.43
2022-11-04T15:22:36.828Z,16.80
2022-11-04T15:25:07.101Z,14.90
2022-11-04T15:27:40.378Z,16.60
2022-11-04T15:30:28.635Z,16.05
2022-11-04T15:33:04.656Z,16.77
2022-11-04T15:35:34.927Z,16.17
2022-11-04T15:38:05.042Z,15.55
2022-11-04T15:40:40.202Z,16.38
2022-11-04T15:43:10.414Z,15.90
2022-11-04T15:45:54.925Z,13.05
2022-11-04T15:48:28.910Z,14.60
2022-11-04T15:51:17.148Z,13.80
2022-11-04T15:54:13.958Z,14.38
2022-11-04T15:56:46.621Z,15.32
2022-11-04T15:59:18.242Z,14.13
2022-11-04T16:01:49.815Z,17.77
2022-11-04T16:04:22.346Z,15.05
2022-11-04T16:07:08.021Z,16.50
2022-11-04T16:09:52.232Z,16.77
2022-11-04T16:12:40.439Z,17.17
2022-11-04T16:15:37.129Z,17.13
2022-11-04T16:18:08.596Z,23.95
2022-11-04T16:20:38.780Z,19.83
2022-11-04T16:23:09.046Z,19.45
2022-11-04T16:25:39.869Z,20.30
2022-11-04T16:28:17.628Z,22.80
2022-11-04T16:30:59.081Z,21.20
2022-11-04T16:33:29.016Z,20.52
2022-11-04T16:35:58.991Z,18.65
2022-11-04T16:38:28.884Z,18.63
2022-11-04T16:40:58.855Z,15.45
2022-11-04T16:43:29.187Z,14.80
2022-11-04T16:45:59.114Z,15.25
2022-11-04T16:48:29.232Z,16.33
2022-11-04T16:50:59.255Z,14.13
2022-11-04T16:53:29.237Z,12.80
2022-11-04T16:55:59.452Z,12.27
2022-11-04T16:58:29.941Z,11.88
2022-11-04T17:01:04.200Z,15.30
2022-11-04T17:03:35.618Z,12.75
2022-11-04T17:06:05.649Z,14.32
2022-11-04T17:08:35.664Z,12.77
2022-11-04T17:11:05.916Z,13.68
2022-11-04T17:13:36.722Z,13.02
2022-11-04T17:16:08.123Z,12.35
2022-11-04T17:18:38.054Z,14.00
2022-11-04T17:21:09.307Z,14.63
2022-11-04T17:23:39.767Z,15.68
2022-11-04T17:26:09.679Z,15.88
2022-11-04T17:28:39.641Z,14.55
2022-11-04T17:31:09.950Z,13.13
2022-11-04T17:33:40.108Z,10.25
2022-11-04T17:36:13.116Z,12.05
2022-11-04T17:38:43.060Z,12.35
2022-11-04T17:41:31.344Z,11.63
2022-11-04T17:44:01.286Z,9.52
2022-11-04T17:46:40.162Z,13.77
2022-11-04T17:49:15.799Z,14.00
2022-11-04T17:51:47.540Z,9.32
2022-11-04T17:54:17.601Z,11.45
2022-11-04T17:56:47.838Z,11.70
2022-11-04T17:59:18.073Z,9.82
2022-11-04T18:01:48.141Z,14.25
2022-11-04T18:04:24.201Z,8.50
2022-11-04T18:06:59.851Z,11.75
2022-11-04T18:09:34.906Z,11.50
2022-11-04T18:12:23.418Z,10.97
2022-11-04T18:14:53.364Z,8.07
2022-11-04T18:17:25.859Z,6.93
2022-11-04T18:19:56.311Z,11.37
2022-11-04T18:22:26.705Z,9.25
2022-11-04T18:24:56.688Z,10.45
2022-11-04T18:27:26.818Z,10.10
2022-11-04T18:29:56.776Z,9.73
2022-11-04T18:32:26.755Z,8.98
2022-11-04T18:34:56.723Z,8.57
2022-11-04T18:37:27.360Z,7.78
2022-11-04T18:39:58.267Z,9.23
2022-11-04T18:42:28.239Z,8.93
2022-11-04T18:44:58.268Z,11.23
2022-11-04T18:47:28.184Z,8.73
2022-11-04T18:49:58.093Z,8.70
2022-11-04T18:52:28.105Z,9.02
2022-11-04T18:54:58.047Z,7.93
2022-11-04T18:57:27.928Z,8.93
2022-11-04T18:59:58.244Z,9.45
2022-11-04T19:02:28.411Z,7.80
2022-11-04T19:04:58.605Z,8.57
2022-11-04T19:07:29.450Z,7.97
2022-11-04T19:10:00.090Z,9.13
2022-11-04T19:12:48.719Z,8.88
2022-11-04T19:15:18.945Z,7.55
2022-11-04T19:17:49.630Z,7.22
2022-11-04T19:20:19.952Z,6.68
2022-11-04T19:22:50.921Z,9.48
2022-11-04T19:25:22.167Z,9.15
2022-11-04T19:28:05.489Z,6.13
2022-11-04T19:30:43.274Z,5.13
2022-11-04T19:33:14.243Z,10.13
2022-11-04T19:35:46.597Z,6.97
2022-11-04T19:38:16.496Z,7.17
2022-11-04T19:40:51.845Z,6.13
2022-11-04T19:43:24.084Z,6.82
2022-11-04T19:45:56.077Z,7.28
2022-11-04T19:48:28.742Z,6.82
2022-11-04T19:50:58.791Z,6.78
2022-11-04T19:53:28.763Z,8.52
2022-11-04T19:55:59.848Z,8.13
2022-11-04T19:58:30.729Z,8.27
2022-11-04T20:01:06.785Z,5.28
2022-11-04T20:03:37.664Z,4.50
2022-11-04T20:06:12.291Z,6.25
2022-11-04T20:08:43.168Z,6.68
2022-11-04T20:11:13.409Z,5.00
2022-11-04T20:13:46.088Z,6.40
2022-11-04T20:16:24.688Z,5.00
2022-11-04T20:19:02.562Z,4.82
2022-11-04T20:21:35.684Z,6.18
2022-11-04T20:26:37.429Z,6.65
2022-11-04T20:29:07.690Z,4.82
2022-11-04T20:31:40.177Z,6.43
2022-11-04T20:34:10.448Z,7.00
2022-11-04T20:36:40.798Z,7.10
2022-11-04T20:39:16.562Z,7.22
2022-11-04T20:41:47.112Z,5.28
2022-11-04T20:44:17.406Z,7.55
2022-11-04T20:46:47.444Z,6.20
2022-11-04T20:49:17.514Z,5.43
2022-11-04T20:51:54.737Z,7.53
2022-11-04T20:54:25.827Z,4.93
2022-11-04T20:56:56.027Z,6.30
2022-11-04T20:59:26.064Z,5.60
2022-11-04T21:01:56.527Z,5.30
2022-11-04T21:04:28.578Z,5.05
2022-11-04T21:07:02.027Z,4.30
2022-11-04T21:09:32.052Z,5.40
2022-11-04T21:12:01.944Z,6.13
2022-11-04T21:14:35.819Z,5.10
2022-11-04T21:17:08.482Z,6.20
2022-11-04T21:19:38.450Z,4.95
2022-11-04T21:22:09.045Z,4.63
2022-11-04T21:24:39.479Z,4.85
2022-11-04T21:27:09.757Z,6.53
2022-11-04T21:29:39.698Z,7.57
2022-11-04T21:32:10.318Z,6.55
2022-11-04T21:34:40.541Z,5.35
2022-11-04T21:37:10.657Z,6.03
2022-11-04T21:39:40.660Z,5.43
2022-11-04T21:42:10.579Z,6.07
2022-11-04T21:44:40.459Z,6.25
2022-11-04T21:47:10.426Z,9.88
2022-11-04T21:49:40.377Z,9.63
2022-11-04T21:52:10.456Z,6.88
2022-11-04T21:54:40.714Z,5.75
2022-11-04T21:57:10.718Z,6.97
2022-11-04T21:59:40.658Z,6.10
2022-11-04T22:02:12.568Z,5.55
2022-11-04T22:04:43.545Z,5.88
2022-11-04T22:07:13.480Z,7.68
2022-11-04T22:09:43.471Z,8.13
2022-11-04T22:12:14.433Z,6.90
2022-11-04T22:14:44.379Z,7.35
2022-11-04T22:17:14.279Z,5.43
2022-11-04T22:19:44.263Z,4.72
2022-11-04T22:22:14.460Z,8.38
2022-11-04T22:24:45.493Z,5.65
2022-11-04T22:27:15.669Z,4.25
2022-11-04T22:29:45.581Z,10.57
2022-11-04T22:32:16.325Z,6.97
2022-11-04T22:34:46.646Z,5.43
2022-11-04T22:37:16.710Z,5.20
2022-11-04T22:39:46.601Z,5.95
2022-11-04T22:42:16.544Z,5.15
2022-11-04T22:44:46.574Z,5.05
2022-11-04T22:47:16.534Z,12.88
2022-11-04T22:49:46.484Z,4.55
2022-11-04T22:52:16.384Z,4.22
2022-11-04T22:54:46.421Z,5.10
2022-11-04T22:57:16.345Z,5.82
2022-11-04T22:59:46.233Z,6.75
2022-11-04T23:02:16.398Z,5.22
2022-11-04T23:04:46.682Z,4.65
2022-11-04T23:07:16.665Z,5.13
2022-11-04T23:10:04.699Z,5.53
2022-11-04T23:12:58.269Z,6.53
2022-11-04T23:15:46.162Z,7.07
2022-11-04T23:18:34.109Z,4.63
2022-11-04T23:21:22.523Z,7.28
2022-11-04T23:24:10.576Z,4.55
2022-11-04T23:26:40.550Z,6.13
2022-11-04T23:29:28.557Z,5.90
2022-11-04T23:31:58.476Z,4.78
2022-11-04T23:34:47.627Z,6.72
2022-11-04T23:37:17.866Z,4.75
2022-11-04T23:39:51.560Z,5.22
2022-11-04T23:42:22.764Z,5.68
2022-11-04T23:45:12.529Z,7.45
2022-11-04T23:48:02.620Z,5.93
2022-11-04T23:50:52.593Z,4.25
2022-11-04T23:53:41.424Z,4.80
2022-11-04T23:56:30.845Z,5.78
2022-11-04T23:59:18.781Z,5.55
